createdAt,value
2018-11-21T00:01:14.225Z,16.80
2018-11-21T00:03:41.586Z,14.10
2018-11-21T00:06:08.924Z,16.10
2018-11-21T00:08:36.267Z,16.13
2018-11-21T00:11:03.801Z,16.47
2018-11-21T00:13:31.144Z,15.90
2018-11-21T00:15:58.494Z,15.73
2018-11-21T00:18:25.866Z,15.80
2018-11-21T00:20:53.229Z,15.20
2018-11-21T00:23:20.561Z,17.17
2018-11-21T00:25:47.890Z,15.77
2018-11-21T00:28:15.229Z,15.00
2018-11-21T00:30:42.569Z,14.50
2018-11-21T00:33:10.289Z,16.60
2018-11-21T00:35:37.625Z,14.83
2018-11-21T00:38:04.978Z,16.30
2018-11-21T00:40:32.340Z,15.67
2018-11-21T00:42:59.731Z,15.97
2018-11-21T00:45:27.081Z,14.67
2018-11-21T00:47:54.418Z,15.60
2018-11-21T00:50:21.794Z,17.83
2018-11-21T00:52:49.131Z,16.70
2018-11-21T00:55:16.468Z,17.50
2018-11-21T00:57:44.219Z,16.93
2018-11-21T01:00:11.564Z,15.97
2018-11-21T01:02:38.939Z,16.00
2018-11-21T01:05:06.839Z,15.70
2018-11-21T01:07:34.537Z,16.67
2018-11-21T01:10:01.909Z,15.80
2018-11-21T01:12:29.573Z,15.47
2018-11-21T01:14:56.946Z,16.47
2018-11-21T01:17:24.282Z,15.47
2018-11-21T01:19:51.638Z,16.80
2018-11-21T01:22:18.983Z,15.90
2018-11-21T01:24:46.342Z,16.80
2018-11-21T01:27:13.798Z,15.90
2018-11-21T01:29:41.145Z,15.57
2018-11-21T01:32:08.532Z,15.63
2018-11-21T01:34:35.886Z,16.27
2018-11-21T01:37:03.503Z,16.33
2018-11-21T01:39:30.843Z,16.80
2018-11-21T01:41:58.224Z,15.37
2018-11-21T01:44:25.576Z,15.60
2018-11-21T01:46:52.903Z,16.77
2018-11-21T01:49:20.501Z,15.97
2018-11-21T01:51:47.830Z,16.90
2018-11-21T01:54:15.187Z,15.87
2018-11-21T01:56:42.552Z,16.60
2018-11-21T01:59:09.919Z,15.57
2018-11-21T02:01:37.265Z,17.03
2018-11-21T02:04:04.969Z,17.17
2018-11-21T02:06:32.338Z,16.93
2018-11-21T02:08:59.680Z,17.37
2018-11-21T02:11:27.108Z,14.83
2018-11-21T02:13:54.477Z,16.80
2018-11-21T02:16:21.819Z,17.40
2018-11-21T02:18:49.508Z,15.87
2018-11-21T02:21:16.950Z,18.90
2018-11-21T02:23:44.547Z,17.57
2018-11-21T02:26:11.962Z,17.90
2018-11-21T02:28:39.453Z,17.10
2018-11-21T02:31:06.904Z,17.00
2018-11-21T02:33:34.430Z,16.40
2018-11-21T02:36:01.887Z,17.80
2018-11-21T02:38:29.359Z,16.90
2018-11-21T02:40:56.811Z,15.33
2018-11-21T02:43:24.290Z,17.07
2018-11-21T02:45:51.727Z,17.43
2018-11-21T02:48:19.222Z,15.67
2018-11-21T02:50:46.702Z,17.20
2018-11-21T02:53:14.159Z,17.93
2018-11-21T02:55:41.628Z,15.57
2018-11-21T02:58:09.113Z,15.83
2018-11-21T03:00:36.569Z,16.60
2018-11-21T03:03:04.085Z,16.93
2018-11-21T03:05:31.548Z,16.97
2018-11-21T03:07:59.039Z,16.83
2018-11-21T03:10:26.856Z,15.83
2018-11-21T03:12:54.299Z,17.03
2018-11-21T03:15:21.763Z,17.20
2018-11-21T03:17:49.203Z,17.37
2018-11-21T03:20:16.721Z,16.70
2018-11-21T03:22:44.170Z,16.97
2018-11-21T03:25:11.635Z,16.57
2018-11-21T03:27:39.077Z,17.30
2018-11-21T03:30:07.916Z,16.77
2018-11-21T03:32:35.481Z,17.50
2018-11-21T03:35:02.962Z,17.40
2018-11-21T03:37:30.413Z,15.23
2018-11-21T03:39:57.925Z,16.50
2018-11-21T03:42:25.401Z,18.10
2018-11-21T03:44:53.219Z,17.20
2018-11-21T03:47:20.709Z,16.97
2018-11-21T03:49:48.222Z,17.73
2018-11-21T03:52:15.671Z,17.13
2018-11-21T03:54:43.119Z,17.90
2018-11-21T03:57:10.591Z,17.70
2018-11-21T03:59:38.050Z,17.90
2018-11-21T04:02:05.548Z,17.70
2018-11-21T04:04:33.023Z,17.23
2018-11-21T04:07:00.475Z,16.43
2018-11-21T04:09:27.971Z,17.07
2018-11-21T04:11:55.417Z,16.17
2018-11-21T04:14:22.863Z,17.07
2018-11-21T04:16:50.307Z,17.23
2018-11-21T04:19:17.774Z,17.40
2018-11-21T04:21:45.218Z,17.60
2018-11-21T04:24:12.672Z,17.67
2018-11-21T04:26:40.201Z,17.17
2018-11-21T04:29:08.096Z,17.27
2018-11-21T04:31:35.531Z,17.07
2018-11-21T04:34:03.015Z,15.87
2018-11-21T04:36:30.476Z,16.77
2018-11-21T04:38:57.924Z,17.80
2018-11-21T04:41:25.398Z,18.03
2018-11-21T04:43:53.229Z,17.77
2018-11-21T04:46:20.710Z,17.20
2018-11-21T04:48:48.588Z,18.97
2018-11-21T04:51:16.031Z,17.63
2018-11-21T04:53:43.482Z,17.03
2018-11-21T04:56:11.025Z,15.20
2018-11-21T04:58:38.420Z,18.17
2018-11-21T05:01:05.890Z,16.77
2018-11-21T05:03:33.636Z,16.03
2018-11-21T05:06:01.111Z,18.40
2018-11-21T05:08:28.595Z,17.87
2018-11-21T05:10:56.080Z,16.57
2018-11-21T05:13:23.525Z,18.43
2018-11-21T05:15:50.979Z,16.43
2018-11-21T05:18:18.435Z,17.70
2018-11-21T05:20:45.868Z,17.40
2018-11-21T05:23:13.328Z,17.37
2018-11-21T05:25:40.772Z,18.10
2018-11-21T05:28:08.228Z,17.20
2018-11-21T05:30:35.691Z,16.43
2018-11-21T05:33:03.417Z,15.53
2018-11-21T05:35:30.927Z,16.60
2018-11-21T05:37:58.402Z,15.40
2018-11-21T05:40:25.854Z,15.83
2018-11-21T05:42:53.316Z,16.73
2018-11-21T05:45:20.780Z,14.27
2018-11-21T05:47:48.237Z,16.37
2018-11-21T05:50:15.717Z,16.40
2018-11-21T05:52:43.175Z,14.10
2018-11-21T05:55:10.681Z,15.60
2018-11-21T05:57:38.172Z,16.23
2018-11-21T06:00:09.579Z,16.33
2018-11-21T06:02:37.056Z,16.43
2018-11-21T06:05:04.741Z,16.47
2018-11-21T06:07:32.175Z,16.43
2018-11-21T06:09:59.660Z,15.00
2018-11-21T06:12:27.235Z,15.90
2018-11-21T06:14:54.813Z,16.90
2018-11-21T06:17:22.267Z,16.37
2018-11-21T06:19:49.793Z,16.40
2018-11-21T06:22:17.243Z,16.43
2018-11-21T06:24:44.750Z,16.50
2018-11-21T06:27:12.207Z,16.30
2018-11-21T06:29:39.658Z,16.17
2018-11-21T06:32:07.140Z,17.57
2018-11-21T06:34:34.599Z,16.73
2018-11-21T06:37:02.147Z,16.40
2018-11-21T06:39:29.687Z,16.90
2018-11-21T06:41:57.206Z,16.03
2018-11-21T06:44:25.543Z,17.30
2018-11-21T06:46:53.091Z,16.73
2018-11-21T06:49:20.641Z,16.83
2018-11-21T06:51:48.134Z,17.47
2018-11-21T06:54:15.588Z,15.50
2018-11-21T06:56:43.118Z,16.27
2018-11-21T06:59:10.585Z,15.73
2018-11-21T07:01:38.070Z,16.60
2018-11-21T07:04:05.549Z,17.73
2018-11-21T07:06:33.013Z,17.20
2018-11-21T07:09:00.500Z,17.67
2018-11-21T07:11:28.010Z,16.07
2018-11-21T07:13:55.449Z,15.77
2018-11-21T07:16:22.918Z,16.50
2018-11-21T07:18:50.434Z,17.03
2018-11-21T07:21:17.918Z,15.70
2018-11-21T07:23:45.594Z,16.03
2018-11-21T07:26:13.055Z,16.47
2018-11-21T07:28:40.499Z,18.20
2018-11-21T07:31:07.998Z,15.63
2018-11-21T07:33:35.470Z,17.40
2018-11-21T07:36:02.942Z,15.57
2018-11-21T07:38:30.431Z,15.70
2018-11-21T07:40:57.920Z,16.53
2018-11-21T07:43:25.441Z,16.70
2018-11-21T07:45:52.940Z,16.77
2018-11-21T07:48:20.738Z,17.00
2018-11-21T07:50:48.205Z,15.00
2018-11-21T07:53:15.688Z,16.20
2018-11-21T07:55:43.176Z,18.40
2018-11-21T07:58:10.674Z,19.03
2018-11-21T08:01:07.987Z,19.10
2018-11-21T08:03:35.470Z,15.30
2018-11-21T08:06:02.936Z,15.70
2018-11-21T08:08:30.430Z,17.13
2018-11-21T08:10:57.865Z,14.13
2018-11-21T08:13:25.320Z,15.87
2018-11-21T08:15:52.830Z,14.87
2018-11-21T08:18:20.248Z,17.40
2018-11-21T08:20:47.701Z,16.43
2018-11-21T08:23:15.178Z,16.43
2018-11-21T08:25:42.618Z,16.30
2018-11-21T08:28:10.092Z,15.73
2018-11-21T08:30:37.535Z,15.67
2018-11-21T08:33:05.048Z,14.37
2018-11-21T08:35:32.494Z,15.90
2018-11-21T08:37:59.975Z,15.37
2018-11-21T08:40:27.744Z,14.60
2018-11-21T08:42:55.235Z,14.17
2018-11-21T08:45:22.731Z,14.17
2018-11-21T08:47:50.201Z,14.17
2018-11-21T08:50:17.722Z,12.93
2018-11-21T08:52:45.154Z,14.27
2018-11-21T08:55:12.658Z,14.47
2018-11-21T08:57:40.142Z,15.07
2018-11-21T09:00:09.840Z,13.50
2018-11-21T09:02:37.312Z,14.10
2018-11-21T09:05:06.642Z,13.27
2018-11-21T09:07:34.178Z,14.23
2018-11-21T09:10:01.666Z,12.90
2018-11-21T09:12:29.580Z,13.40
2018-11-21T09:14:56.600Z,12.97
2018-11-21T09:17:24.084Z,13.63
2018-11-21T09:19:51.567Z,14.33
2018-11-21T09:22:19.084Z,12.30
2018-11-21T09:24:46.571Z,13.13
2018-11-21T09:27:14.205Z,11.50
2018-11-21T09:29:41.680Z,13.53
2018-11-21T09:32:09.145Z,12.93
2018-11-21T09:34:36.676Z,14.10
2018-11-21T09:37:04.371Z,11.60
2018-11-21T09:39:31.817Z,12.80
2018-11-21T09:41:59.302Z,11.50
2018-11-21T09:44:26.767Z,12.10
2018-11-21T09:46:54.228Z,11.90
2018-11-21T09:49:21.726Z,11.50
2018-11-21T09:51:49.183Z,11.73
2018-11-21T09:54:16.634Z,11.60
2018-11-21T09:56:44.110Z,11.50
2018-11-21T09:59:15.221Z,10.67
2018-11-21T10:02:19.708Z,10.97
2018-11-21T10:04:47.165Z,11.87
2018-11-21T10:07:14.599Z,11.50
2018-11-21T10:09:42.503Z,11.40
2018-11-21T10:12:09.933Z,13.07
2018-11-21T10:14:37.411Z,11.47
2018-11-21T10:17:04.900Z,12.40
2018-11-21T10:19:33.344Z,11.27
2018-11-21T10:22:00.955Z,11.00
2018-11-21T10:24:28.463Z,11.37
2018-11-21T10:26:55.994Z,10.47
2018-11-21T10:29:23.461Z,12.17
2018-11-21T10:31:50.967Z,11.20
2018-11-21T10:34:18.422Z,11.80
2018-11-21T10:36:45.893Z,11.60
2018-11-21T10:39:13.361Z,10.53
2018-11-21T10:41:40.934Z,11.10
2018-11-21T10:44:08.935Z,11.60
2018-11-21T10:46:36.778Z,12.00
2018-11-21T10:49:04.509Z,11.50
2018-11-21T10:51:31.978Z,11.50
2018-11-21T10:53:59.457Z,11.40
2018-11-21T10:56:27.040Z,12.27
2018-11-21T10:58:54.421Z,12.03
2018-11-21T11:01:21.930Z,11.07
2018-11-21T11:03:49.370Z,11.50
2018-11-21T11:06:16.918Z,10.77
2018-11-21T11:08:44.405Z,12.00
2018-11-21T11:11:11.857Z,11.63
2018-11-21T11:13:39.325Z,12.60
2018-11-21T11:16:07.788Z,11.10
2018-11-21T11:18:34.297Z,11.20
2018-11-21T11:21:01.811Z,11.63
2018-11-21T11:23:29.260Z,12.00
2018-11-21T11:25:56.731Z,11.30
2018-11-21T11:28:24.297Z,12.40
2018-11-21T11:30:51.744Z,12.00
2018-11-21T11:33:19.296Z,11.30
2018-11-21T11:35:46.781Z,11.07
2018-11-21T11:38:14.627Z,11.43
2018-11-21T11:40:42.161Z,11.70
2018-11-21T11:43:09.658Z,11.10
2018-11-21T11:45:37.136Z,11.63
2018-11-21T11:48:04.892Z,10.90
2018-11-21T11:50:32.387Z,12.13
2018-11-21T11:52:59.867Z,12.53
2018-11-21T11:55:27.333Z,11.63
2018-11-21T11:57:54.911Z,13.57
2018-11-21T12:00:22.415Z,12.23
2018-11-21T12:02:49.936Z,12.20
2018-11-21T12:05:17.434Z,12.00
2018-11-21T12:07:44.919Z,12.30
2018-11-21T12:10:12.386Z,11.70
2018-11-21T12:12:40.275Z,12.23
2018-11-21T12:15:07.393Z,12.40
2018-11-21T12:17:34.883Z,11.80
2018-11-21T12:20:02.427Z,12.30
2018-11-21T12:22:29.890Z,12.20
2018-11-21T12:24:57.359Z,13.87
2018-11-21T12:27:24.828Z,11.03
2018-11-21T12:29:52.316Z,12.37
2018-11-21T12:32:19.855Z,11.87
2018-11-21T12:34:47.313Z,12.87
2018-11-21T12:37:14.798Z,10.83
2018-11-21T12:39:42.299Z,11.47
2018-11-21T12:42:10.117Z,11.20
2018-11-21T12:44:37.618Z,12.10
2018-11-21T12:47:05.226Z,10.90
2018-11-21T12:49:32.798Z,11.70
2018-11-21T12:52:00.301Z,12.00
2018-11-21T12:54:27.633Z,9.83
2018-11-21T12:56:55.113Z,10.80
2018-11-21T12:59:23.021Z,11.17
2018-11-21T13:01:50.541Z,10.57
2018-11-21T13:04:18.013Z,10.50
2018-11-21T13:06:45.576Z,11.80
2018-11-21T13:09:12.985Z,10.50
2018-11-21T13:11:40.461Z,10.50
2018-11-21T13:14:07.903Z,11.33
2018-11-21T13:16:35.393Z,12.03
2018-11-21T13:19:02.839Z,11.30
2018-11-21T13:21:30.324Z,11.30
2018-11-21T13:23:57.810Z,9.97
2018-11-21T13:26:25.268Z,11.23
2018-11-21T13:28:52.769Z,10.10
2018-11-21T13:31:20.236Z,11.57
2018-11-21T13:33:48.124Z,11.10
2018-11-21T13:36:15.571Z,11.03
2018-11-21T13:38:43.046Z,11.00
2018-11-21T13:41:10.545Z,9.93
2018-11-21T13:43:38.021Z,10.63
2018-11-21T13:46:05.552Z,9.77
2018-11-21T13:48:32.996Z,11.10
2018-11-21T13:51:00.447Z,11.40
2018-11-21T13:53:27.953Z,9.33
2018-11-21T13:55:55.406Z,9.83
2018-11-21T13:58:22.916Z,9.93
2018-11-21T14:00:50.385Z,9.93
2018-11-21T14:03:17.855Z,9.80
2018-11-21T14:05:45.329Z,10.27
2018-11-21T14:08:12.767Z,10.40
2018-11-21T14:10:40.211Z,9.67
2018-11-21T14:13:07.702Z,10.20
2018-11-21T14:15:35.150Z,10.57
2018-11-21T14:18:02.683Z,10.30
2018-11-21T14:20:30.521Z,10.60
2018-11-21T14:22:58.010Z,10.77
2018-11-21T14:25:25.471Z,10.07
2018-11-21T14:27:52.976Z,10.20
2018-11-21T14:30:20.457Z,11.30
2018-11-21T14:32:47.914Z,10.23
2018-11-21T14:35:15.404Z,10.60
2018-11-21T14:37:42.861Z,9.50
2018-11-21T14:40:11.845Z,9.50
2018-11-21T14:42:39.324Z,10.20
2018-11-21T14:45:08.736Z,9.77
2018-11-21T14:47:36.194Z,9.37
2018-11-21T14:50:11.167Z,9.23
2018-11-21T14:52:38.642Z,11.37
2018-11-21T14:55:06.274Z,10.33
2018-11-21T14:57:33.771Z,10.40
2018-11-21T15:00:01.225Z,10.97
2018-11-21T15:02:28.706Z,9.97
2018-11-21T15:04:56.128Z,10.30
2018-11-21T15:07:23.652Z,10.57
2018-11-21T15:09:51.124Z,10.20
2018-11-21T15:12:18.594Z,9.17
2018-11-21T15:14:46.058Z,9.40
2018-11-21T15:17:13.543Z,10.53
2018-11-21T15:19:41.024Z,9.30
2018-11-21T15:22:08.539Z,9.07
2018-11-21T15:24:36.013Z,10.50
2018-11-21T15:27:03.501Z,9.97
2018-11-21T15:29:30.959Z,9.80
2018-11-21T15:31:58.771Z,10.20
2018-11-21T15:34:26.243Z,9.30
2018-11-21T15:36:53.791Z,11.03
2018-11-21T15:39:21.255Z,10.40
2018-11-21T15:41:48.746Z,10.30
2018-11-21T15:44:16.230Z,10.43
2018-11-21T15:46:45.783Z,10.00
2018-11-21T15:49:11.158Z,10.03
2018-11-21T15:51:38.653Z,9.97
2018-11-21T15:54:06.429Z,10.43
2018-11-21T15:56:33.944Z,9.90
2018-11-21T15:59:01.420Z,9.83
2018-11-21T16:01:28.965Z,9.80
2018-11-21T16:03:56.444Z,8.67
2018-11-21T16:06:23.938Z,9.17
2018-11-21T16:08:51.395Z,10.90
2018-11-21T16:11:18.917Z,9.53
2018-11-21T16:13:46.395Z,9.30
2018-11-21T16:16:13.849Z,9.43
2018-11-21T16:18:41.333Z,9.67
2018-11-21T16:21:08.826Z,10.60
2018-11-21T16:23:36.320Z,9.73
2018-11-21T16:26:03.979Z,10.03
2018-11-21T16:28:31.502Z,9.30
2018-11-21T16:30:58.930Z,9.90
2018-11-21T16:33:26.484Z,10.17
2018-11-21T16:35:53.964Z,10.40
2018-11-21T16:38:21.455Z,9.30
2018-11-21T16:40:48.957Z,9.67
2018-11-21T16:43:16.437Z,9.60
2018-11-21T16:45:43.915Z,8.73
2018-11-21T16:48:11.433Z,9.90
2018-11-21T16:50:38.927Z,10.10
2018-11-21T16:53:06.400Z,9.17
2018-11-21T16:55:33.908Z,8.70
2018-11-21T16:58:01.419Z,9.57
2018-11-21T17:00:28.955Z,9.87
2018-11-21T17:02:56.460Z,10.00
2018-11-21T17:05:24.095Z,10.50
2018-11-21T17:07:51.568Z,9.00
2018-11-21T17:10:19.123Z,9.60
2018-11-21T17:12:46.644Z,8.73
2018-11-21T17:15:14.169Z,9.40
2018-11-21T17:17:41.735Z,8.23
2018-11-21T17:20:10.926Z,9.37
2018-11-21T17:22:38.402Z,10.50
2018-11-21T17:25:08.352Z,10.10
2018-11-21T17:27:36.247Z,9.13
2018-11-21T17:30:05.140Z,9.53
2018-11-21T17:32:32.659Z,10.00
2018-11-21T17:35:00.191Z,9.90
2018-11-21T17:37:27.699Z,10.80
2018-11-21T17:39:55.211Z,10.13
2018-11-21T17:42:22.758Z,8.80
2018-11-21T17:44:50.343Z,9.97
2018-11-21T17:47:17.850Z,9.27
2018-11-21T17:52:12.786Z,10.30
2018-11-21T17:54:40.792Z,8.70
2018-11-21T17:57:08.333Z,10.93
2018-11-21T17:59:35.842Z,9.40
2018-11-21T18:02:03.315Z,10.07
2018-11-21T18:04:30.827Z,9.43
2018-11-21T18:06:58.325Z,9.70
2018-11-21T18:09:25.839Z,11.40
2018-11-21T18:11:53.297Z,9.87
2018-11-21T18:14:20.775Z,10.03
2018-11-21T18:16:48.246Z,9.87
2018-11-21T18:19:16.147Z,10.10
2018-11-21T18:21:43.604Z,10.50
2018-11-21T18:24:11.129Z,9.80
2018-11-21T18:26:38.588Z,9.83
2018-11-21T18:29:08.499Z,9.57
2018-11-21T18:31:33.570Z,9.77
2018-11-21T18:34:01.104Z,8.57
2018-11-21T18:36:28.560Z,8.33
2018-11-21T18:38:56.130Z,11.83
2018-11-21T18:41:23.563Z,10.63
2018-11-21T18:43:51.373Z,10.27
2018-11-21T18:46:18.883Z,9.87
2018-11-21T18:48:46.423Z,11.13
2018-11-21T18:51:13.877Z,9.77
2018-11-21T18:53:41.698Z,9.60
2018-11-21T18:56:25.947Z,9.20
2018-11-21T18:59:17.807Z,9.67
2018-11-21T19:01:46.774Z,9.60
2018-11-21T19:04:12.831Z,9.60
2018-11-21T19:06:40.338Z,10.07
2018-11-21T19:09:11.899Z,9.63
2018-11-21T19:11:39.493Z,9.90
2018-11-21T19:14:06.960Z,10.40
2018-11-21T19:16:34.455Z,10.13
2018-11-21T19:19:01.913Z,11.60
2018-11-21T19:21:29.383Z,13.60
2018-11-21T19:23:56.974Z,13.50
2018-11-21T19:26:24.472Z,14.70
2018-11-21T19:28:52.020Z,13.27
2018-11-21T19:31:19.536Z,12.13
2018-11-21T19:33:46.997Z,11.33
2018-11-21T19:36:14.454Z,10.83
2018-11-21T19:38:41.965Z,11.90
2018-11-21T19:41:10.019Z,10.17
2018-11-21T19:43:37.526Z,9.63
2018-11-21T19:46:05.333Z,9.40
2018-11-21T19:48:32.947Z,9.50
2018-11-21T19:51:00.387Z,10.03
2018-11-21T19:53:27.869Z,9.97
2018-11-21T19:55:55.330Z,11.77
2018-11-21T19:58:22.814Z,13.40
2018-11-21T20:00:50.296Z,13.60
2018-11-21T20:03:17.801Z,13.87
2018-11-21T20:05:45.266Z,15.40
2018-11-21T20:08:12.807Z,11.10
2018-11-21T20:10:40.303Z,11.23
2018-11-21T20:13:07.756Z,10.70
2018-11-21T20:15:35.244Z,10.43
2018-11-21T20:18:02.689Z,9.47
2018-11-21T20:20:30.208Z,10.00
2018-11-21T20:22:57.773Z,9.87
2018-11-21T20:25:25.633Z,9.63
2018-11-21T20:27:53.084Z,9.50
2018-11-21T20:30:20.576Z,10.77
2018-11-21T20:32:48.082Z,9.60
2018-11-21T20:35:15.825Z,9.40
2018-11-21T20:37:43.894Z,9.97
2018-11-21T20:40:12.432Z,10.50
2018-11-21T20:42:39.923Z,9.83
2018-11-21T20:45:11.477Z,10.07
2018-11-21T20:47:38.963Z,10.77
2018-11-21T20:50:06.809Z,10.30
2018-11-21T20:52:34.281Z,9.97
2018-11-21T20:55:01.780Z,10.50
2018-11-21T20:57:29.261Z,9.83
2018-11-21T20:59:56.715Z,10.27
2018-11-21T21:02:24.256Z,10.50
2018-11-21T21:04:51.751Z,11.13
2018-11-21T21:07:22.500Z,10.67
2018-11-21T21:09:46.714Z,10.40
2018-11-21T21:12:14.185Z,9.80
2018-11-21T21:14:41.645Z,10.27
2018-11-21T21:17:09.137Z,11.13
2018-11-21T21:19:36.669Z,10.70
2018-11-21T21:22:04.672Z,10.60
2018-11-21T21:24:32.517Z,10.20
2018-11-21T21:27:00.297Z,10.67
2018-11-21T21:29:27.781Z,10.73
2018-11-21T21:31:55.282Z,9.80
2018-11-21T21:34:22.738Z,10.07
2018-11-21T21:36:50.218Z,11.23
2018-11-21T21:39:17.695Z,11.10
2018-11-21T21:41:45.152Z,9.67
2018-11-21T21:44:12.633Z,10.77
2018-11-21T21:46:40.082Z,10.23
2018-11-21T21:49:07.568Z,10.20
2018-11-21T21:51:35.025Z,10.37
2018-11-21T21:54:02.502Z,11.50
2018-11-21T21:56:29.953Z,9.40
2018-11-21T21:58:57.437Z,10.83
2018-11-21T22:01:24.926Z,9.43
2018-11-21T22:03:52.403Z,10.93
2018-11-21T22:06:19.872Z,10.77
2018-11-21T22:08:47.326Z,10.90
2018-11-21T22:11:14.812Z,12.53
2018-11-21T22:13:42.276Z,11.20
2018-11-21T22:16:09.749Z,12.20
2018-11-21T22:18:37.222Z,10.10
2018-11-21T22:21:04.703Z,10.60
2018-11-21T22:23:32.195Z,10.97
2018-11-21T22:25:59.668Z,10.70
2018-11-21T22:28:27.504Z,9.97
2018-11-21T22:30:54.959Z,9.80
2018-11-21T22:33:22.469Z,9.93
2018-11-21T22:35:49.933Z,11.90
2018-11-21T22:38:17.393Z,10.47
2018-11-21T22:40:44.897Z,9.60
2018-11-21T22:43:12.358Z,11.00
2018-11-21T22:45:39.879Z,10.23
2018-11-21T22:48:07.369Z,11.27
2018-11-21T22:50:34.818Z,11.40
2018-11-21T22:53:02.292Z,11.30
2018-11-21T22:55:29.749Z,11.10
2018-11-21T22:57:57.186Z,10.67
2018-11-21T23:00:24.685Z,10.73
2018-11-21T23:02:52.124Z,11.30
2018-11-21T23:05:19.580Z,10.70
2018-11-21T23:07:47.062Z,10.33
2018-11-21T23:10:14.540Z,10.90
2018-11-21T23:12:41.994Z,11.40
2018-11-21T23:15:10.112Z,11.00
2018-11-21T23:17:37.573Z,10.67
2018-11-21T23:20:06.919Z,10.13
2018-11-21T23:22:34.377Z,10.33
2018-11-21T23:25:01.877Z,11.23
2018-11-21T23:27:29.414Z,10.67
2018-11-21T23:29:57.020Z,10.40
2018-11-21T23:32:24.835Z,11.40
2018-11-21T23:34:52.284Z,11.60
2018-11-21T23:37:19.768Z,12.57
2018-11-21T23:39:47.234Z,12.33
2018-11-21T23:42:14.721Z,11.93
2018-11-21T23:44:42.557Z,12.37
2018-11-21T23:47:10.414Z,12.10
2018-11-21T23:49:37.897Z,12.00
2018-11-21T23:52:05.354Z,11.53
2018-11-21T23:54:32.814Z,9.97
2018-11-21T23:57:15.899Z,13.23
2018-11-21T23:59:27.771Z,11.97
